Time;durP1;ratioP1;P1;durP2;ratioP2;P2;SDS_P1;SDS_P2;PMS_P1;PMS_P2;Temp;Humidity;BMP_temperature;BMP_pressure;BME280_temperature;BME280_humidity;BME280_pressure;Samples;Min_cycle;Max_cycle;Signal;HPM_P1;HPM_P2
2022/04/30 00:00:51;;;;;;;8.60;4.45;;;6.80;99.90;;;;;;5065743;28;20079;-82
2022/04/30 00:03:17;;;;;;;9.20;4.43;;;6.70;99.90;;;;;;5079445;28;20044;-81
2022/04/30 00:05:43;;;;;;;9.10;5.45;;;6.70;99.90;;;;;;5081431;28;20678;-82
2022/04/30 00:08:09;;;;;;;8.98;4.70;;;6.70;99.90;;;;;;5063038;28;20046;-82
2022/04/30 00:10:38;;;;;;;9.55;4.38;;;6.70;99.90;;;;;;5080491;28;20048;-82
2022/04/30 00:13:06;;;;;;;10.48;4.15;;;6.60;99.90;;;;;;5064944;28;20052;-82
2022/04/30 00:15:34;;;;;;;10.75;4.75;;;6.60;99.90;;;;;;5076282;28;20036;-83
2022/04/30 00:18:01;;;;;;;9.85;4.80;;;6.60;99.90;;;;;;5064868;28;20078;-82
2022/04/30 00:20:27;;;;;;;10.52;4.63;;;6.60;99.90;;;;;;5079074;28;20048;-82
2022/04/30 00:22:52;;;;;;;8.25;4.32;;;6.60;99.90;;;;;;5048065;28;20052;-83
2022/04/30 00:25:18;;;;;;;8.52;4.72;;;6.50;99.90;;;;;;5079434;28;20052;-82
2022/04/30 00:27:44;;;;;;;25.75;6.72;;;6.50;99.90;;;;;;5064064;28;20496;-82
2022/04/30 00:30:11;;;;;;;10.75;5.03;;;6.60;99.90;;;;;;5080703;28;20040;-82
2022/04/30 00:32:37;;;;;;;11.00;4.95;;;6.50;99.90;;;;;;5063001;28;20051;-81
2022/04/30 00:35:03;;;;;;;10.80;5.10;;;6.50;99.90;;;;;;5047622;28;20047;-82
2022/04/30 00:37:30;;;;;;;10.13;5.15;;;6.50;99.90;;;;;;5062408;28;20042;-82
2022/04/30 00:39:55;;;;;;;9.80;4.75;;;6.50;99.90;;;;;;5080974;28;20037;-82
2022/04/30 00:42:21;;;;;;;10.25;5.20;;;6.50;99.90;;;;;;5045428;28;20052;-81
2022/04/30 00:44:47;;;;;;;9.98;5.25;;;6.50;99.90;;;;;;5063519;28;20049;-82
2022/04/30 00:47:18;;;;;;;12.50;4.80;;;6.50;99.90;;;;;;5080127;28;20062;-82
2022/04/30 00:49:45;;;;;;;10.07;5.45;;;6.50;99.90;;;;;;5079582;28;20052;-82
2022/04/30 00:52:15;;;;;;;11.00;4.50;;;6.50;99.90;;;;;;5080656;28;20116;-82
2022/04/30 00:54:41;;;;;;;9.68;5.20;;;6.40;99.90;;;;;;5078710;28;20049;-81
2022/04/30 00:57:11;;;;;;;8.85;4.85;;;6.40;99.90;;;;;;5080854;28;20078;-82
2022/04/30 00:59:41;;;;;;;9.15;4.88;;;6.40;99.90;;;;;;5078934;28;20051;-82
2022/04/30 01:02:11;;;;;;;8.20;5.00;;;6.30;99.90;;;;;;5063170;28;20131;-82
2022/04/30 01:04:37;;;;;;;8.60;4.78;;;6.30;99.90;;;;;;5080457;28;20048;-82
2022/04/30 01:07:06;;;;;;;9.00;5.38;;;6.60;99.90;;;;;;5061896;28;20128;-83
2022/04/30 01:09:35;;;;;;;8.98;5.18;;;6.30;99.90;;;;;;5063819;28;20048;-83
2022/04/30 01:12:03;;;;;;;9.38;5.03;;;6.30;99.90;;;;;;5061695;28;20063;-83
2022/04/30 01:14:31;;;;;;;11.60;5.15;;;6.30;99.90;;;;;;5079890;28;20074;-82
2022/04/30 01:17:05;;;;;;;11.77;5.22;;;6.30;99.90;;;;;;5062206;28;20148;-82
2022/04/30 01:19:36;;;;;;;7.55;5.05;;;6.30;99.90;;;;;;5063569;28;20134;-81
2022/04/30 01:22:09;;;;;;;11.02;4.70;;;6.30;99.90;;;;;;5062492;28;20116;-81
2022/04/30 01:24:36;;;;;;;8.63;4.70;;;6.30;99.90;;;;;;5078212;28;20109;-81
2022/04/30 01:27:05;;;;;;;9.15;4.45;;;6.30;99.90;;;;;;5080208;28;20052;-81
2022/04/30 01:29:32;;;;;;;11.57;4.60;;;6.20;99.90;;;;;;5078033;28;20044;-81
2022/04/30 01:37:29;;;;;;;8.32;4.47;;;6.00;99.90;;;;;;5077888;28;20041;-82
2022/04/30 01:39:59;;;;;;;11.13;5.40;;;5.90;99.90;;;;;;5079948;28;20123;-82
2022/04/30 01:42:29;;;;;;;8.40;4.63;;;5.90;99.90;;;;;;5077951;28;20072;-81
2022/04/30 01:44:57;;;;;;;10.50;4.60;;;5.70;99.90;;;;;;5079198;28;20052;-81
2022/04/30 01:47:23;;;;;;;7.60;4.60;;;5.60;99.90;;;;;;5062904;28;20066;-81
2022/04/30 01:49:49;;;;;;;10.27;4.75;;;5.50;99.90;;;;;;5061419;28;20040;-82
2022/04/30 01:52:15;;;;;;;10.98;4.53;;;6.30;99.90;;;;;;5063437;28;20060;-81
2022/04/30 01:54:42;;;;;;;8.30;4.85;;;5.40;99.90;;;;;;5077291;28;20040;-81
2022/04/30 01:57:08;;;;;;;11.50;5.35;;;5.30;99.90;;;;;;5079850;28;20099;-81
2022/04/30 01:59:34;;;;;;;9.88;4.75;;;5.10;99.90;;;;;;5077854;28;20037;-82
2022/04/30 02:02:05;;;;;;;7.07;4.25;;;5.00;99.90;;;;;;5078582;28;20103;-81
2022/04/30 02:04:32;;;;;;;7.47;4.15;;;4.90;99.90;;;;;;5079338;28;20045;-81
2022/04/30 02:07:00;;;;;;;7.78;4.60;;;4.80;99.90;;;;;;5061055;28;20063;-81
2022/04/30 02:09:28;;;;;;;9.18;4.93;;;4.80;99.90;;;;;;5062343;28;20053;-81
2022/04/30 02:11:59;;;;;;;9.77;5.30;;;4.60;99.90;;;;;;5043995;28;20131;-81
2022/04/30 02:14:29;;;;;;;9.88;4.43;;;4.90;99.90;;;;;;5079044;28;20060;-82
2022/04/30 02:16:54;;;;;;;8.43;4.43;;;4.60;99.90;;;;;;5061349;28;20068;-81
2022/04/30 02:19:22;;;;;;;8.40;4.93;;;4.50;99.90;;;;;;5062046;28;20044;-81
2022/04/30 02:21:49;;;;;;;9.70;4.53;;;4.50;99.90;;;;;;5078883;28;20071;-80
2022/04/30 02:24:15;;;;;;;9.82;5.05;;;4.40;99.90;;;;;;5060544;28;20079;-80
2022/04/30 02:26:43;;;;;;;8.73;4.93;;;4.40;99.90;;;;;;5045750;28;20102;-80
2022/04/30 02:29:10;;;;;;;8.00;5.05;;;4.30;99.90;;;;;;5077272;28;20056;-81
2022/04/30 02:31:36;;;;;;;9.77;5.07;;;4.30;99.90;;;;;;5079052;28;20606;-80
2022/04/30 02:34:01;;;;;;;9.30;5.32;;;4.30;99.90;;;;;;5077370;28;20096;-80
2022/04/30 02:36:27;;;;;;;8.95;5.13;;;4.20;99.90;;;;;;5045211;28;20041;-80
2022/04/30 02:38:55;;;;;;;10.02;5.50;;;4.20;99.90;;;;;;5061923;28;20044;-80
2022/04/30 02:41:24;;;;;;;9.68;4.82;;;4.20;99.90;;;;;;5077022;28;20049;-81
2022/04/30 02:43:51;;;;;;;7.82;4.85;;;4.20;99.90;;;;;;5076061;28;20048;-80
2022/04/30 02:46:17;;;;;;;10.48;5.32;;;4.30;99.90;;;;;;5058182;28;20053;-80
2022/04/30 02:48:43;;;;;;;8.80;5.00;;;4.20;99.90;;;;;;5078814;28;20041;-80
2022/04/30 02:51:10;;;;;;;9.23;5.13;;;4.40;99.90;;;;;;5077298;28;20076;-80
2022/04/30 02:53:39;;;;;;;10.30;5.60;;;4.80;99.90;;;;;;5061009;28;20036;-80
2022/04/30 02:56:05;;;;;;;8.43;4.82;;;4.30;99.90;;;;;;5078635;28;20049;-80
2022/04/30 03:01:16;;;;;;;10.45;5.28;;;4.30;99.90;;;;;;5078516;28;20049;-80
2022/04/30 03:03:42;;;;;;;10.60;5.25;;;4.30;99.90;;;;;;5076625;28;20048;-80
2022/04/30 03:06:09;;;;;;;10.02;4.78;;;4.30;99.90;;;;;;5078375;28;20111;-80
2022/04/30 03:08:35;;;;;;;11.02;4.97;;;4.30;99.90;;;;;;5044521;28;20032;-80
2022/04/30 03:11:03;;;;;;;12.00;5.05;;;4.30;99.90;;;;;;5077375;28;20044;-80
2022/04/30 03:13:30;;;;;;;8.63;4.78;;;4.40;99.90;;;;;;5078826;28;20117;-80
2022/04/30 03:21:41;;;;;;;9.45;4.45;;;4.30;99.90;;;;;;5075919;28;20043;-80
2022/04/30 03:23:54;;;;;;;9.48;5.50;;;4.40;99.90;;;;;;5077304;28;20049;-80
2022/04/30 03:26:20;;;;;;;7.97;4.22;;;4.10;99.90;;;;;;5061687;28;20052;-80
2022/04/30 03:28:47;;;;;;;8.77;4.72;;;4.10;99.90;;;;;;5043107;28;20610;-80
2022/04/30 03:31:15;;;;;;;8.40;4.45;;;4.10;99.90;;;;;;5077429;28;20048;-80
2022/04/30 03:33:44;;;;;;;8.57;4.93;;;4.30;99.90;;;;;;5056088;28;20044;-80
2022/04/30 03:36:12;;;;;;;10.57;5.40;;;4.00;99.90;;;;;;5059844;28;20051;-80
2022/04/30 03:38:38;;;;;;;7.63;4.72;;;4.10;99.90;;;;;;5075594;28;20087;-80
2022/04/30 03:41:05;;;;;;;6.28;4.03;;;4.80;99.90;;;;;;5075415;28;20049;-80
2022/04/30 03:43:31;;;;;;;8.52;4.57;;;3.90;99.90;;;;;;5061472;28;20044;-80
2022/04/30 03:45:57;;;;;;;9.35;4.68;;;3.90;99.90;;;;;;5079241;28;20044;-79
2022/04/30 03:48:23;;;;;;;8.30;4.90;;;4.00;99.90;;;;;;5081940;28;20041;-79
2022/04/30 03:50:48;;;;;;;7.68;4.28;;;4.00;99.90;;;;;;5046837;28;20040;-79
2022/04/30 03:53:14;;;;;;;8.82;4.65;;;4.10;99.90;;;;;;5065121;28;20040;-79
2022/04/30 03:55:40;;;;;;;7.57;4.63;;;3.90;99.90;;;;;;5080955;28;20048;-80
2022/04/30 03:58:05;;;;;;;10.73;5.65;;;3.90;99.90;;;;;;5064463;28;20052;-79
2022/04/30 04:00:31;;;;;;;10.15;5.22;;;4.00;99.90;;;;;;5081634;28;20063;-80
2022/04/30 04:02:59;;;;;;;9.77;5.22;;;3.90;99.90;;;;;;5079281;28;20539;-79
2022/04/30 04:05:26;;;;;;;10.05;6.05;;;3.80;99.90;;;;;;5081773;28;20036;-79
2022/04/30 04:07:52;;;;;;;11.98;5.63;;;3.90;99.90;;;;;;5079403;28;20072;-79
2022/04/30 04:10:18;;;;;;;10.82;5.43;;;3.90;99.90;;;;;;5064812;28;20146;-79
2022/04/30 04:12:43;;;;;;;11.18;5.88;;;3.90;99.90;;;;;;5063841;28;20052;-79
2022/04/30 04:17:55;;;;;;;9.35;4.70;;;3.00;99.90;;;;;;5075813;28;20045;-80
2022/04/30 04:20:29;;;;;;;11.43;5.18;;;4.40;99.90;;;;;;5062744;28;20052;-80
2022/04/30 04:22:55;;;;;;;7.32;4.75;;;3.90;99.90;;;;;;5057398;28;20044;-80
2022/04/30 04:28:06;;;;;;;9.38;4.70;;;4.20;99.90;;;;;;5065518;28;20051;-80
2022/04/30 04:30:33;;;;;;;10.05;5.32;;;4.40;99.90;;;;;;5081202;28;20052;-80
2022/04/30 04:33:00;;;;;;;10.05;5.22;;;4.00;99.90;;;;;;5079394;28;20105;-80
2022/04/30 04:35:26;;;;;;;10.98;5.68;;;4.10;99.90;;;;;;5081593;28;20451;-80
2022/04/30 04:37:52;;;;;;;8.88;5.22;;;4.10;99.90;;;;;;5079214;28;20377;-81
2022/04/30 04:40:19;;;;;;;8.98;4.90;;;4.20;99.90;;;;;;5064065;28;20040;-82
2022/04/30 04:42:48;;;;;;;7.43;4.65;;;4.20;99.90;;;;;;5080264;28;20044;-81
2022/04/30 04:45:14;;;;;;;9.52;5.13;;;4.20;99.90;;;;;;5062582;28;20040;-81
2022/04/30 04:47:45;;;;;;;9.65;5.72;;;4.20;99.90;;;;;;5064093;28;20495;-80
2022/04/30 04:50:12;;;;;;;8.88;4.97;;;4.20;99.90;;;;;;5062188;28;20083;-80
2022/04/30 04:52:39;;;;;;;8.95;5.57;;;4.70;99.90;;;;;;5081208;28;20056;-80
2022/04/30 04:55:05;;;;;;;8.85;5.43;;;4.40;99.90;;;;;;5078205;28;20052;-80
2022/04/30 04:57:31;;;;;;;8.85;5.05;;;4.50;99.90;;;;;;5079988;28;20048;-80
2022/04/30 04:59:57;;;;;;;11.13;5.57;;;4.90;99.90;;;;;;5079880;28;20040;-80
2022/04/30 05:02:23;;;;;;;9.55;5.30;;;4.70;99.90;;;;;;5046331;28;20043;-80
2022/04/30 05:04:49;;;;;;;8.27;4.95;;;4.90;99.90;;;;;;5047183;28;20575;-80
2022/04/30 05:07:15;;;;;;;11.40;5.60;;;5.10;99.90;;;;;;5078308;28;20072;-81
2022/04/30 05:09:41;;;;;;;11.45;5.78;;;5.00;99.90;;;;;;5043682;28;20057;-81
2022/04/30 05:12:07;;;;;;;14.23;5.85;;;5.30;99.90;;;;;;5076899;28;20071;-80
2022/04/30 05:14:33;;;;;;;8.55;5.07;;;5.20;99.90;;;;;;5079875;28;20049;-80
2022/04/30 05:17:03;;;;;;;9.15;5.60;;;5.60;99.90;;;;;;5079149;28;20098;-80
2022/04/30 05:19:29;;;;;;;9.43;5.20;;;5.40;99.90;;;;;;5045985;28;20048;-80
2022/04/30 05:21:55;;;;;;;11.02;5.35;;;5.50;99.90;;;;;;5080510;28;20055;-80
2022/04/30 05:24:21;;;;;;;10.35;5.60;;;5.50;99.90;;;;;;5061575;28;20048;-80
2022/04/30 05:26:50;;;;;;;9.77;5.72;;;5.60;99.90;;;;;;5080136;28;20052;-81
2022/04/30 05:29:16;;;;;;;9.75;5.72;;;5.60;99.90;;;;;;5062133;28;20049;-81
2022/04/30 05:31:43;;;;;;;7.55;5.00;;;5.60;99.90;;;;;;5079771;28;20059;-80
2022/04/30 05:34:09;;;;;;;9.02;5.40;;;5.70;99.90;;;;;;5054459;28;20123;-81
2022/04/30 05:36:35;;;;;;;10.45;5.82;;;5.70;99.90;;;;;;5069398;28;20052;-80
2022/04/30 05:39:01;;;;;;;11.05;6.07;;;5.70;99.90;;;;;;5079822;28;20071;-80
2022/04/30 05:41:28;;;;;;;9.18;5.97;;;5.70;99.90;;;;;;5055679;28;20044;-80
2022/04/30 05:43:54;;;;;;;9.93;5.97;;;5.80;99.90;;;;;;5079910;28;20052;-80
2022/04/30 05:46:20;;;;;;;10.75;5.50;;;5.80;99.90;;;;;;5077158;28;20102;-81
2022/04/30 05:48:45;;;;;;;12.48;5.85;;;5.90;99.90;;;;;;5046608;28;20045;-81
2022/04/30 05:51:11;;;;;;;10.02;5.35;;;5.90;99.90;;;;;;5045303;28;20122;-81
2022/04/30 05:53:37;;;;;;;9.95;5.53;;;6.00;99.90;;;;;;5078495;28;20479;-80
2022/04/30 05:56:03;;;;;;;9.18;5.70;;;6.10;99.90;;;;;;5063069;28;20044;-82
2022/04/30 05:58:28;;;;;;;9.88;5.47;;;6.20;99.90;;;;;;5077689;28;20044;-81
2022/04/30 06:00:54;;;;;;;9.18;5.13;;;6.30;99.90;;;;;;5046073;28;20040;-82
2022/04/30 06:03:20;;;;;;;8.98;5.07;;;6.40;99.90;;;;;;5044183;28;20048;-82
2022/04/30 06:05:46;;;;;;;7.78;5.22;;;6.50;99.90;;;;;;5078937;28;20049;-82
2022/04/30 06:08:12;;;;;;;11.27;5.15;;;6.60;99.90;;;;;;5077307;28;20074;-81
2022/04/30 06:10:38;;;;;;;8.98;5.32;;;6.70;99.90;;;;;;5061666;28;20091;-80
2022/04/30 06:13:04;;;;;;;10.00;5.72;;;6.80;99.90;;;;;;5079061;28;20048;-80
2022/04/30 06:15:30;;;;;;;9.25;5.40;;;6.90;99.90;;;;;;5076832;28;20132;-80
2022/04/30 06:17:56;;;;;;;8.80;5.15;;;7.00;99.90;;;;;;5079065;28;20037;-80
2022/04/30 06:20:22;;;;;;;9.32;5.38;;;7.10;99.90;;;;;;5060472;28;20055;-81
2022/04/30 06:22:48;;;;;;;10.23;5.05;;;7.20;99.90;;;;;;5079389;28;20056;-81
2022/04/30 06:25:13;;;;;;;11.60;5.40;;;7.20;99.90;;;;;;5077290;28;20036;-81
2022/04/30 06:27:40;;;;;;;9.38;5.15;;;7.20;99.90;;;;;;5078568;28;20045;-82
2022/04/30 06:30:07;;;;;;;8.45;5.53;;;7.20;99.90;;;;;;5062256;28;20123;-82
2022/04/30 06:32:33;;;;;;;8.45;4.85;;;7.20;99.90;;;;;;5077348;28;20113;-83
2022/04/30 06:34:59;;;;;;;8.77;5.18;;;7.30;99.90;;;;;;5079057;28;20052;-83
2022/04/30 06:37:25;;;;;;;9.90;5.63;;;7.30;99.90;;;;;;5060315;28;20542;-83
2022/04/30 06:39:51;;;;;;;10.23;5.43;;;7.40;99.90;;;;;;5045282;28;20067;-83
2022/04/30 06:42:17;;;;;;;8.30;5.45;;;7.50;99.90;;;;;;5060499;28;20065;-82
2022/04/30 06:44:43;;;;;;;9.43;5.28;;;7.70;99.90;;;;;;5078184;28;20048;-82
2022/04/30 06:47:09;;;;;;;10.57;5.40;;;7.80;99.90;;;;;;5078138;28;20047;-81
2022/04/30 06:49:35;;;;;;;7.85;5.40;;;7.90;99.90;;;;;;5077295;28;20049;-82
2022/04/30 06:52:01;;;;;;;11.55;5.13;;;8.10;99.90;;;;;;5078817;28;20072;-82
2022/04/30 06:57:11;;;;;;;9.35;5.38;;;8.30;99.90;;;;;;5075546;28;20053;-80
2022/04/30 06:59:40;;;;;;;8.70;4.32;;;8.50;99.90;;;;;;5076263;28;20079;-80
2022/04/30 07:02:17;;;;;;;10.50;4.80;;;8.70;99.90;;;;;;5077895;28;20044;-82
2022/04/30 07:04:46;;;;;;;5.05;3.65;;;8.90;99.90;;;;;;5063447;28;20055;-83
2022/04/30 07:07:12;;;;;;;4.97;3.20;;;9.00;99.90;;;;;;5076245;28;20052;-82
2022/04/30 07:09:39;;;;;;;10.23;3.90;;;9.20;99.90;;;;;;5080037;28;20060;-83
2022/04/30 07:12:07;;;;;;;6.80;3.28;;;9.30;99.90;;;;;;5059945;28;20943;-82
2022/04/30 07:14:40;;;;;;;6.03;3.80;;;9.50;99.90;;;;;;5078233;28;20052;-83
2022/04/30 07:17:07;;;;;;;7.18;3.50;;;9.60;99.90;;;;;;5078151;28;20084;-81
2022/04/30 07:19:34;;;;;;;8.00;3.88;;;9.70;99.90;;;;;;5078192;28;20064;-82
2022/04/30 07:22:00;;;;;;;8.52;4.72;;;9.90;99.90;;;;;;5082885;28;20052;-81
2022/04/30 07:24:27;;;;;;;6.70;3.78;;;10.00;99.90;;;;;;5046873;28;20044;-82
2022/04/30 07:26:53;;;;;;;6.43;4.43;;;10.10;99.90;;;;;;5082513;28;20122;-83
2022/04/30 07:29:19;;;;;;;6.53;4.38;;;10.10;99.90;;;;;;5080566;28;20040;-82
2022/04/30 07:31:45;;;;;;;6.00;3.53;;;10.20;99.90;;;;;;5065471;28;20063;-82
2022/04/30 07:34:11;;;;;;;6.30;3.85;;;10.20;99.90;;;;;;5098493;28;20049;-82
2022/04/30 07:36:37;;;;;;;6.15;4.07;;;10.30;99.90;;;;;;5060879;28;20266;-82
2022/04/30 07:39:03;;;;;;;5.47;3.47;;;10.30;99.90;;;;;;5065685;28;20041;-82
2022/04/30 07:41:29;;;;;;;6.28;3.55;;;10.40;99.90;;;;;;5063574;28;20051;-82
2022/04/30 07:43:55;;;;;;;5.85;3.83;;;10.40;99.90;;;;;;5082197;28;20078;-83
2022/04/30 07:46:22;;;;;;;7.35;4.03;;;10.50;99.90;;;;;;5079853;28;20132;-82
2022/04/30 07:48:49;;;;;;;7.40;4.28;;;10.60;99.90;;;;;;5082169;28;20048;-82
2022/04/30 07:51:18;;;;;;;7.93;4.03;;;10.70;99.90;;;;;;5081326;28;20052;-82
2022/04/30 07:53:44;;;;;;;5.55;3.28;;;10.70;99.90;;;;;;5064595;28;20044;-82
2022/04/30 07:56:11;;;;;;;4.05;3.08;;;10.70;99.90;;;;;;5081579;28;20068;-82
2022/04/30 07:58:37;;;;;;;7.13;3.50;;;10.70;99.90;;;;;;5086011;28;20045;-82
2022/04/30 08:01:03;;;;;;;5.70;3.53;;;10.70;99.90;;;;;;5073119;28;20045;-82
2022/04/30 08:03:29;;;;;;;6.25;3.35;;;10.80;99.90;;;;;;5070189;28;20048;-82
2022/04/30 08:05:54;;;;;;;6.97;3.22;;;10.90;99.90;;;;;;5066266;28;20048;-82
2022/04/30 08:08:20;;;;;;;4.82;2.80;;;10.90;99.90;;;;;;5060154;28;20056;-83
2022/04/30 08:10:46;;;;;;;6.22;3.25;;;10.90;99.90;;;;;;5070812;28;20072;-80
2022/04/30 08:13:12;;;;;;;6.03;3.25;;;11.00;99.90;;;;;;5073579;28;20040;-82
2022/04/30 08:15:43;;;;;;;7.90;3.72;;;11.00;99.90;;;;;;5061645;28;20048;-82
2022/04/30 08:18:10;;;;;;;5.75;3.88;;;11.10;99.90;;;;;;5098422;28;20048;-82
2022/04/30 08:20:37;;;;;;;7.25;3.65;;;11.20;99.90;;;;;;5061428;28;20053;-79
2022/04/30 08:23:05;;;;;;;6.38;4.40;;;11.20;99.90;;;;;;5060447;28;20133;-82
2022/04/30 08:25:30;;;;;;;5.88;3.38;;;11.30;99.90;;;;;;5080030;28;20052;-81
2022/04/30 08:27:56;;;;;;;8.82;3.60;;;11.40;99.90;;;;;;5073789;28;20048;-82
2022/04/30 08:30:22;;;;;;;7.22;3.40;;;11.00;99.90;;;;;;5080593;28;20105;-79
2022/04/30 08:32:48;;;;;;;7.00;3.90;;;11.40;99.90;;;;;;5061860;28;20131;-81
2022/04/30 08:35:14;;;;;;;5.38;3.40;;;11.40;99.90;;;;;;5047646;28;20048;-80
2022/04/30 08:37:40;;;;;;;5.25;3.17;;;11.40;99.90;;;;;;5095498;28;20052;-81
2022/04/30 08:40:06;;;;;;;6.85;3.63;;;11.30;99.90;;;;;;5095681;28;20086;-79
2022/04/30 08:42:32;;;;;;;5.30;3.42;;;11.30;99.90;;;;;;5085031;28;20115;-80
2022/04/30 08:45:03;;;;;;;6.28;4.55;;;11.20;99.90;;;;;;5070313;28;20048;-80
2022/04/30 08:47:29;;;;;;;6.63;3.78;;;11.30;99.90;;;;;;5070984;28;20036;-80
2022/04/30 08:49:57;;;;;;;6.35;3.50;;;11.20;99.90;;;;;;5079170;28;20036;-80
2022/04/30 08:52:22;;;;;;;5.95;3.53;;;11.10;99.90;;;;;;5075681;28;20060;-79
2022/04/30 08:54:48;;;;;;;7.13;3.80;;;11.00;99.90;;;;;;5065098;28;20048;-79
2022/04/30 08:57:15;;;;;;;7.18;3.40;;;10.90;99.90;;;;;;5081063;28;20052;-80
2022/04/30 08:59:42;;;;;;;7.13;3.28;;;10.90;99.90;;;;;;5065351;28;20040;-80
2022/04/30 09:02:10;;;;;;;6.22;3.47;;;11.00;99.90;;;;;;5065434;28;20048;-81
2022/04/30 09:04:45;;;;;;;6.70;3.53;;;11.10;99.90;;;;;;5083797;28;20043;-80
2022/04/30 09:07:20;;;;;;;6.90;3.78;;;11.10;99.90;;;;;;5078081;28;20043;-82
2022/04/30 09:09:56;;;;;;;7.93;3.67;;;11.20;99.90;;;;;;5100441;28;20055;-80
2022/04/30 09:12:23;;;;;;;6.97;3.85;;;11.30;99.90;;;;;;5086586;28;20062;-79
2022/04/30 09:14:49;;;;;;;4.90;3.20;;;11.30;99.90;;;;;;5079237;28;20131;-79
2022/04/30 09:17:16;;;;;;;7.25;3.90;;;11.40;99.90;;;;;;5079613;28;20084;-81
2022/04/30 09:20:03;;;;;;;6.10;3.42;;;11.40;99.90;;;;;;5097685;28;20048;-80
2022/04/30 09:22:36;;;;;;;5.95;3.35;;;11.50;99.90;;;;;;5100308;28;20044;-81
2022/04/30 09:25:04;;;;;;;5.95;3.95;;;11.50;99.90;;;;;;5090284;28;20074;-78
2022/04/30 09:27:31;;;;;;;5.53;3.15;;;11.50;99.90;;;;;;5068548;28;20048;-80
2022/04/30 09:29:57;;;;;;;8.80;4.00;;;11.50;99.90;;;;;;5062662;28;20048;-79
2022/04/30 09:32:25;;;;;;;5.65;3.70;;;11.60;99.90;;;;;;5061630;28;20127;-78
2022/04/30 09:37:42;;;;;;;6.00;3.50;;;11.60;99.90;;;;;;5063466;28;20094;-80
2022/04/30 09:40:14;;;;;;;5.80;2.90;;;11.70;99.90;;;;;;5062647;28;20044;-79
2022/04/30 09:42:48;;;;;;;5.15;3.35;;;11.80;99.90;;;;;;5077600;28;20040;-81
2022/04/30 09:45:26;;;;;;;5.03;2.90;;;11.90;99.90;;;;;;5077481;28;20051;-80
2022/04/30 09:47:53;;;;;;;4.97;2.95;;;12.00;99.90;;;;;;5062772;28;20064;-80
2022/04/30 09:55:54;;;;;;;5.75;3.28;;;12.50;99.90;;;;;;5064383;28;20044;-79
2022/04/30 09:58:25;;;;;;;5.68;3.33;;;12.70;99.90;;;;;;5085651;28;20064;-81
2022/04/30 10:00:56;;;;;;;4.72;3.20;;;13.10;99.90;;;;;;5078680;28;20127;-76
2022/04/30 10:03:29;;;;;;;6.15;3.47;;;13.40;99.90;;;;;;5079134;28;20052;-78
2022/04/30 10:06:03;;;;;;;7.05;3.00;;;13.70;99.90;;;;;;5080044;28;20041;-80
2022/04/30 10:08:35;;;;;;;5.07;3.20;;;14.00;99.90;;;;;;5074504;28;20075;-80
2022/04/30 10:11:17;;;;;;;5.53;3.10;;;14.30;99.90;;;;;;5088722;28;20053;-81
2022/04/30 10:13:52;;;;;;;5.25;2.92;;;14.60;99.90;;;;;;5092700;28;20051;-80
2022/04/30 10:16:29;;;;;;;4.35;2.53;;;14.90;99.90;;;;;;5083088;28;20134;-79
2022/04/30 10:19:11;;;;;;;4.57;2.72;;;15.10;99.90;;;;;;5088136;28;20066;-77
2022/04/30 10:21:38;;;;;;;4.75;3.10;;;15.20;99.90;;;;;;5078971;28;20048;-80
2022/04/30 10:24:05;;;;;;;4.53;3.00;;;15.30;99.90;;;;;;5092343;28;20072;-75
2022/04/30 10:26:32;;;;;;;5.50;3.00;;;15.30;99.90;;;;;;5078738;28;20061;-81
2022/04/30 10:29:00;;;;;;;4.38;2.80;;;15.20;99.90;;;;;;5076448;28;20117;-80
2022/04/30 10:31:25;;;;;;;4.70;3.03;;;15.10;99.90;;;;;;5061455;28;20521;-80
2022/04/30 10:33:51;;;;;;;5.15;3.28;;;15.10;99.90;;;;;;5077135;28;20078;-78
2022/04/30 10:36:18;;;;;;;5.38;2.80;;;15.10;99.90;;;;;;5091694;28;20040;-80
2022/04/30 10:38:55;;;;;;;6.70;3.10;;;14.90;99.90;;;;;;5090946;28;20043;-78
2022/04/30 10:41:21;;;;;;;5.57;3.20;;;14.70;99.90;;;;;;5062864;28;20053;-80
2022/04/30 10:43:46;;;;;;;5.53;3.45;;;14.50;99.90;;;;;;5091596;28;20790;-80
2022/04/30 10:46:23;;;;;;;5.53;3.30;;;14.40;99.90;;;;;;5078796;28;20517;-80
2022/04/30 10:48:48;;;;;;;;;;;14.50;99.90;;;;;;5090182;28;20091;-78
2022/04/30 10:51:16;;;;;;;6.27;3.20;;;14.40;99.90;;;;;;5098000;28;19923;-80
2022/04/30 10:53:46;;;;;;;6.60;3.22;;;14.40;99.90;;;;;;5080165;28;20082;-80
2022/04/30 10:56:13;;;;;;;4.80;3.05;;;14.40;99.90;;;;;;5091083;28;20048;-79
2022/04/30 10:58:43;;;;;;;6.18;3.22;;;14.30;99.90;;;;;;5084459;28;20049;-79
2022/04/30 11:01:20;;;;;;;4.20;2.80;;;14.20;99.90;;;;;;5061329;28;20044;-81
2022/04/30 11:03:51;;;;;;;4.65;3.22;;;14.10;99.90;;;;;;5093433;28;20048;-79
2022/04/30 11:06:23;;;;;;;4.53;3.00;;;13.90;99.90;;;;;;5060894;28;20048;-79
2022/04/30 11:09:00;;;;;;;5.35;3.13;;;13.80;99.90;;;;;;5061564;28;20101;-79
2022/04/30 11:11:26;;;;;;;6.38;3.60;;;13.90;99.90;;;;;;5075662;28;20053;-75
2022/04/30 11:14:11;;;;;;;5.40;3.53;;;13.90;99.90;;;;;;5064110;28;20075;-80
2022/04/30 11:16:45;;;;;;;5.13;3.70;;;13.80;99.90;;;;;;5048890;28;20048;-80
2022/04/30 11:19:13;;;;;;;7.80;3.70;;;13.80;99.90;;;;;;5076920;28;20056;-80
2022/04/30 11:21:53;;;;;;;5.57;3.83;;;13.90;99.90;;;;;;5060698;28;20048;-79
2022/04/30 11:24:28;;;;;;;7.18;4.15;;;13.90;99.90;;;;;;5076092;28;20036;-80
2022/04/30 11:26:56;;;;;;;6.63;3.65;;;13.80;99.90;;;;;;5060917;28;20539;-79
2022/04/30 11:29:22;;;;;;;8.18;3.55;;;13.80;99.90;;;;;;5076225;28;20072;-80
2022/04/30 11:31:54;;;;;;;4.90;3.20;;;13.80;99.90;;;;;;5097414;28;20578;-79
2022/04/30 11:34:20;;;;;;;5.15;3.10;;;14.00;99.90;;;;;;5095850;28;20052;-79
2022/04/30 11:36:47;;;;;;;5.75;3.63;;;14.00;99.90;;;;;;5040649;28;20132;-79
2022/04/30 11:39:14;;;;;;;5.38;3.38;;;14.10;99.90;;;;;;5077930;28;20112;-79
2022/04/30 11:41:41;;;;;;;6.70;3.92;;;14.30;99.90;;;;;;5058338;28;20045;-80
2022/04/30 11:44:12;;;;;;;6.13;3.63;;;14.50;99.90;;;;;;5095023;28;20475;-79
2022/04/30 11:46:39;;;;;;;5.15;3.65;;;14.50;99.90;;;;;;5092401;28;20040;-80
2022/04/30 11:49:12;;;;;;;4.38;3.47;;;14.60;99.90;;;;;;5093579;28;20537;-77
2022/04/30 11:51:40;;;;;;;6.25;3.35;;;14.60;99.90;;;;;;5077405;28;20049;-79
2022/04/30 11:54:11;;;;;;;4.97;3.13;;;14.70;99.90;;;;;;5075705;28;20044;-80
2022/04/30 11:56:38;;;;;;;5.53;3.03;;;14.70;99.90;;;;;;5060576;28;20549;-80
2022/04/30 11:59:05;;;;;;;3.75;2.78;;;14.70;99.90;;;;;;5085411;28;20101;-80
2022/04/30 12:01:38;;;;;;;4.25;2.80;;;14.80;99.90;;;;;;5077153;28;20032;-81
2022/04/30 12:04:14;;;;;;;3.72;3.10;;;14.80;99.90;;;;;;5056565;28;20041;-80
2022/04/30 12:06:45;;;;;;;5.28;3.22;;;15.00;99.90;;;;;;5076627;28;20083;-79
2022/04/30 12:09:19;;;;;;;4.13;2.78;;;15.00;99.90;;;;;;5065180;28;20484;-79
2022/04/30 12:11:51;;;;;;;5.72;2.83;;;15.10;99.90;;;;;;5061725;28;20060;-78
2022/04/30 12:14:18;;;;;;;4.32;3.03;;;15.20;99.90;;;;;;5082440;28;20044;-80
2022/04/30 12:16:45;;;;;;;4.03;3.05;;;15.20;99.90;;;;;;5076508;28;20036;-80
2022/04/30 12:25:15;;;;;;;3.50;2.45;;;15.40;99.90;;;;;;5092565;28;20044;-80
2022/04/30 12:27:51;;;;;;;6.13;2.33;;;15.40;99.90;;;;;;5098041;28;20131;-80
2022/04/30 12:30:17;;;;;;;3.35;2.05;;;15.30;99.90;;;;;;5097407;28;20045;-79
2022/04/30 12:32:48;;;;;;;3.50;2.17;;;15.30;99.90;;;;;;5063686;28;20056;-80
2022/04/30 12:35:38;;;;;;;4.78;2.70;;;15.10;99.90;;;;;;5063668;28;20044;-76
2022/04/30 12:38:14;;;;;;;3.47;2.30;;;15.00;99.90;;;;;;5067233;28;20045;-80
2022/04/30 12:40:41;;;;;;;4.85;2.88;;;14.90;99.90;;;;;;5096533;28;20071;-79
2022/04/30 12:43:08;;;;;;;3.75;2.30;;;14.80;99.90;;;;;;5080229;28;20048;-80
2022/04/30 12:45:34;;;;;;;4.05;2.70;;;14.70;99.90;;;;;;5077728;28;20051;-79
2022/04/30 12:48:01;;;;;;;3.67;2.15;;;14.70;99.90;;;;;;5043525;28;20053;-78
2022/04/30 12:50:28;;;;;;;3.40;2.58;;;14.80;99.90;;;;;;5068190;28;20063;-79
2022/04/30 12:52:54;;;;;;;4.13;2.55;;;14.80;99.90;;;;;;5079979;28;20119;-79
2022/04/30 12:55:20;;;;;;;5.13;2.55;;;14.70;99.90;;;;;;5095129;28;20418;-80
2022/04/30 12:57:47;;;;;;;3.97;2.45;;;14.60;99.90;;;;;;5097435;28;20095;-79
2022/04/30 13:00:14;;;;;;;4.05;2.45;;;14.50;99.90;;;;;;5100691;28;20044;-78
2022/04/30 13:02:40;;;;;;;4.05;2.70;;;14.50;99.90;;;;;;5097186;28;20115;-78
2022/04/30 13:05:16;;;;;;;5.20;2.72;;;14.40;99.90;;;;;;5100302;28;20063;-79
2022/04/30 13:07:44;;;;;;;5.90;3.10;;;14.30;99.90;;;;;;5059545;28;20076;-78
2022/04/30 13:15:41;;;;;;;4.65;3.08;;;13.90;99.90;;;;;;5077354;28;20053;-78
2022/04/30 13:18:07;;;;;;;4.03;2.90;;;13.90;99.90;;;;;;5074656;28;20048;-79
2022/04/30 13:20:34;;;;;;;3.97;2.80;;;13.90;99.90;;;;;;5081298;28;20507;-78
2022/04/30 13:23:00;;;;;;;5.18;2.95;;;13.90;99.90;;;;;;5094143;28;20052;-78
2022/04/30 13:25:27;;;;;;;4.97;3.42;;;13.80;99.90;;;;;;5077642;28;20040;-78
2022/04/30 13:27:55;;;;;;;4.68;3.15;;;13.70;99.90;;;;;;5078125;28;20400;-79
2022/04/30 13:30:25;;;;;;;5.30;3.22;;;13.70;99.90;;;;;;5079761;28;20056;-77
2022/04/30 13:32:51;;;;;;;6.70;3.20;;;13.60;99.90;;;;;;5060792;28;20059;-77
2022/04/30 13:35:17;;;;;;;4.20;3.00;;;13.60;99.90;;;;;;5063034;28;20041;-77